KMGY/MGY METAR and TAF weather

Enter ICAO airport designator
Station Type Date Time Source
KMGY METAR 2019/12/12 08:53 UTC NOAA

KMGY 120853Z AUTO 11004KT 8SM CLR M06/M08 A3053 RMK AO2 SLP351 T10561083 50003


Station Type Date Time Source
KMGY Decoded METAR 2019/12/12 08:53 UTC NOAA

DAYTON WRIGHT BROTHERS AIRPORT , OH, United States (KMGY) 39-36N 84-14W 289M
Dec 12, 2019 - 03:53 AM EST / 2019.12.12 0853 UTC
Wind: from the ESE (110 degrees) at 5 MPH (4 KT):0
Visibility: 8 mile(s):0
Sky conditions: clear
Temperature: 21.9 F (-5.6 C)
Windchill: 15 F (-9 C):1
Dew Point: 17.1 F (-8.3 C)
Relative Humidity: 81%
Pressure (altimeter): 30.53 in. Hg (1033 hPa)
Pressure tendency: 0.01 inches (0.3 hPa) higher than three hours ago
ob: KMGY 120853Z AUTO 11004KT 8SM CLR M06/M08 A3053 RMK AO2 SLP351 T10561083 50003
cycle: 9

Station Type Date Time Source
KMGY TAF UTC NOAA

Error!

Example: see airport list